Millway, Pennsylvania
Current Conditions -  °F | °C
As of 1:53 AM on Sunday 21 Dec 2014 (Local Time) from KLNS Reporting Station
Overcast Overcast  
Wind Chill: 24°   Ceiling: 3100
Heat Index: 29°   Visibility: 8mi
Dew Point: 23°   Wind: 5mph
Humidity: 78%   Direction: 270°W
Pressure: 30.28"   Gusts: NA
Location:  40.1769°N, 76.295°W
Report Text: KLNS 210653Z AUTO 27004KT 8SM OVC031 M02/M05 A3028 RMK AO2 SLP259 T10171050
Loading
Personal Weather Stations






























Interactive Weather Map New forecast layout! Learn more

10-Day Weather Forecast

Advertisements
Track Severe Weather on mobile